Millersburg, MI (49759)

9:02 PM EST on December 18, 2014 (GMT -0500)
Rainy River | Change Station
CLOSE
Current Station
Personal Weather Station
Location: Onaway, MI
Elevation: 673 ft
Nearby Weather Stations

Elev 673 ft 45.43 °N, 84.20 °W | Updated 4 minutes ago

Clear
Clear
11.5 °F
Feels Like 11 °F
N
0.0
Wind Variable Wind from ENE

Today
High -- | Low -- °F
--% Chance of Precip.
Yesterday
High -- | Low -- °F
Precip. -- in
8:11 AM 4:54 PM
Waning Crescent, 11% visible
Pressure 30.22 in
Visibility 10.0 miles
Clouds Clear
Windchill 11 °F
Dew Point 10 °F
Humidity 93%
Rainfall 0.00 in
Snow Depth Not available.
UV 0 out of 12
Pollen .10 out of 12
Air Quality Not available.
Flu Activity Not available.
METAR KPZQ 190154Z AUTO 29003KT 10SM CLR M09/M10 A3022 RMK AO2 T10941103

More Conditions Fewer Conditions

Pressure 30.22 in
Visibility 10.0 miles
Clouds Clear
Windchill 11 °F
Dew Point 10 °F
Humidity 93%
Rainfall 0.00 in
Snow Depth Not available.
UV 0 out of 12
Pollen .10 out of 12
Air Quality Not available.
Flu Activity Not available.
METAR KPZQ 190154Z AUTO 29003KT 10SM CLR M09/M10 A3022 RMK AO2 T10941103

More Conditions Fewer Conditions

Nowcast | as of 9:00 PM EST on December 18, 2014

At 10 PM...clear. Temperature 13. North winds 6 mph. At 12 am...clear. Temperature 11. North winds 5 mph. At 2 am...clear. Temperature 11. North winds 5 mph. At 4 am...clear. Temperature 11. Light winds.

×

10-Day Weather Forecast

Almanac

Astronomy

Dec. 18, 2014 Rise Set
Actual Time
Civil Twilight
Nautical Twilight
Astronomical Twilight
Moon
Length of Visible Light
Length of Day
Tomorrow will be .
, % of the Moon is Illuminated

Today's Extremes

State Highs State Lows

Community

WunderPhotos

Upload Photos

1,779,036 photos uploaded!

WunderBlogs® & News

Nearby

Air Quality

  Air Quality AQ Index Pollutant
Not available.

Snow Depth

Station Depth Elevation

Earthquake Activity

City Distance Mag. Time & Date
Minimum magnitude displayed is 2.5.

Coastal Water Temperatures

Place Temperature

Nearby Weather Stations